sensor_id;sensor_type;location;lat;lon;timestamp;P1;durP1;ratioP1;P2;durP2;ratioP2
5343;SDS011;2694;48.950;8.970;2022-07-22T00:01:00;6.05;;;4.40;;
5343;SDS011;2694;48.950;8.970;2022-07-22T00:03:27;6.25;;;4.20;;
5343;SDS011;2694;48.950;8.970;2022-07-22T00:05:54;7.28;;;4.68;;
5343;SDS011;2694;48.950;8.970;2022-07-22T00:08:22;8.27;;;4.70;;
5343;SDS011;2694;48.950;8.970;2022-07-22T00:10:49;7.03;;;4.10;;
5343;SDS011;2694;48.950;8.970;2022-07-22T00:13:16;9.23;;;5.40;;
5343;SDS011;2694;48.950;8.970;2022-07-22T00:15:43;6.90;;;4.85;;
5343;SDS011;2694;48.950;8.970;2022-07-22T00:18:10;6.22;;;4.63;;
5343;SDS011;2694;48.950;8.970;2022-07-22T00:20:36;7.30;;;4.57;;
5343;SDS011;2694;48.950;8.970;2022-07-22T00:23:03;6.38;;;4.60;;
5343;SDS011;2694;48.950;8.970;2022-07-22T00:25:31;6.90;;;4.32;;
5343;SDS011;2694;48.950;8.970;2022-07-22T00:27:58;9.20;;;4.47;;
5343;SDS011;2694;48.950;8.970;2022-07-22T00:30:25;9.35;;;4.90;;
5343;SDS011;2694;48.950;8.970;2022-07-22T00:32:52;9.90;;;5.30;;
5343;SDS011;2694;48.950;8.970;2022-07-22T00:35:19;8.23;;;4.97;;
5343;SDS011;2694;48.950;8.970;2022-07-22T00:37:46;8.88;;;5.28;;
5343;SDS011;2694;48.950;8.970;2022-07-22T00:40:12;8.53;;;5.10;;
5343;SDS011;2694;48.950;8.970;2022-07-22T00:42:41;5.77;;;4.20;;
5343;SDS011;2694;48.950;8.970;2022-07-22T00:45:08;9.73;;;5.25;;
5343;SDS011;2694;48.950;8.970;2022-07-22T00:47:36;7.90;;;4.60;;
5343;SDS011;2694;48.950;8.970;2022-07-22T00:50:03;7.40;;;5.50;;
5343;SDS011;2694;48.950;8.970;2022-07-22T00:52:31;7.65;;;4.90;;
5343;SDS011;2694;48.950;8.970;2022-07-22T00:54:58;8.45;;;5.65;;
5343;SDS011;2694;48.950;8.970;2022-07-22T00:57:25;9.60;;;5.30;;
5343;SDS011;2694;48.950;8.970;2022-07-22T00:59:54;8.03;;;5.20;;
5343;SDS011;2694;48.950;8.970;2022-07-22T01:02:21;7.07;;;4.82;;
5343;SDS011;2694;48.950;8.970;2022-07-22T01:04:48;11.60;;;5.35;;
5343;SDS011;2694;48.950;8.970;2022-07-22T01:07:15;7.07;;;5.40;;
5343;SDS011;2694;48.950;8.970;2022-07-22T01:09:42;7.90;;;5.30;;
5343;SDS011;2694;48.950;8.970;2022-07-22T01:12:10;6.82;;;4.82;;
5343;SDS011;2694;48.950;8.970;2022-07-22T01:14:37;10.27;;;5.10;;
5343;SDS011;2694;48.950;8.970;2022-07-22T01:17:06;10.57;;;5.55;;
5343;SDS011;2694;48.950;8.970;2022-07-22T01:19:34;10.57;;;5.40;;
5343;SDS011;2694;48.950;8.970;2022-07-22T01:22:03;7.97;;;5.50;;
5343;SDS011;2694;48.950;8.970;2022-07-22T01:24:30;6.13;;;4.70;;
5343;SDS011;2694;48.950;8.970;2022-07-22T01:26:57;9.37;;;5.00;;
5343;SDS011;2694;48.950;8.970;2022-07-22T01:29:24;7.93;;;5.20;;
5343;SDS011;2694;48.950;8.970;2022-07-22T01:31:51;8.55;;;5.07;;
5343;SDS011;2694;48.950;8.970;2022-07-22T01:34:18;9.43;;;4.65;;
5343;SDS011;2694;48.950;8.970;2022-07-22T01:36:45;7.43;;;5.10;;
5343;SDS011;2694;48.950;8.970;2022-07-22T01:39:13;10.13;;;5.10;;
5343;SDS011;2694;48.950;8.970;2022-07-22T01:41:40;6.30;;;4.85;;
5343;SDS011;2694;48.950;8.970;2022-07-22T01:44:07;7.43;;;4.40;;
5343;SDS011;2694;48.950;8.970;2022-07-22T01:46:34;7.68;;;5.05;;
5343;SDS011;2694;48.950;8.970;2022-07-22T01:49:01;9.98;;;5.50;;
5343;SDS011;2694;48.950;8.970;2022-07-22T01:51:28;7.53;;;4.80;;
5343;SDS011;2694;48.950;8.970;2022-07-22T01:53:55;8.30;;;5.70;;
5343;SDS011;2694;48.950;8.970;2022-07-22T01:56:23;9.50;;;5.30;;
5343;SDS011;2694;48.950;8.970;2022-07-22T01:58:50;8.27;;;5.00;;
5343;SDS011;2694;48.950;8.970;2022-07-22T02:01:17;10.40;;;6.70;;
5343;SDS011;2694;48.950;8.970;2022-07-22T02:03:43;9.25;;;5.38;;
5343;SDS011;2694;48.950;8.970;2022-07-22T02:06:10;8.05;;;5.80;;
5343;SDS011;2694;48.950;8.970;2022-07-22T02:08:37;8.40;;;5.70;;
5343;SDS011;2694;48.950;8.970;2022-07-22T02:11:04;9.57;;;5.28;;
5343;SDS011;2694;48.950;8.970;2022-07-22T02:13:32;9.43;;;5.90;;
5343;SDS011;2694;48.950;8.970;2022-07-22T02:15:59;10.07;;;6.20;;
5343;SDS011;2694;48.950;8.970;2022-07-22T02:18:27;8.75;;;5.72;;
5343;SDS011;2694;48.950;8.970;2022-07-22T02:20:54;12.23;;;6.95;;
5343;SDS011;2694;48.950;8.970;2022-07-22T02:23:21;11.13;;;6.83;;
5343;SDS011;2694;48.950;8.970;2022-07-22T02:25:48;10.37;;;6.17;;
5343;SDS011;2694;48.950;8.970;2022-07-22T02:28:15;8.32;;;5.80;;
5343;SDS011;2694;48.950;8.970;2022-07-22T02:30:43;9.67;;;6.00;;
5343;SDS011;2694;48.950;8.970;2022-07-22T02:33:10;10.75;;;6.50;;
5343;SDS011;2694;48.950;8.970;2022-07-22T02:35:37;10.07;;;5.88;;
5343;SDS011;2694;48.950;8.970;2022-07-22T02:38:04;9.38;;;5.95;;
5343;SDS011;2694;48.950;8.970;2022-07-22T02:40:30;10.65;;;6.15;;
5343;SDS011;2694;48.950;8.970;2022-07-22T02:42:57;9.05;;;6.00;;
5343;SDS011;2694;48.950;8.970;2022-07-22T02:45:24;7.65;;;5.70;;
5343;SDS011;2694;48.950;8.970;2022-07-22T02:47:53;10.88;;;5.20;;
5343;SDS011;2694;48.950;8.970;2022-07-22T02:50:22;10.07;;;5.38;;
5343;SDS011;2694;48.950;8.970;2022-07-22T02:52:49;9.00;;;5.53;;
5343;SDS011;2694;48.950;8.970;2022-07-22T02:55:16;8.80;;;5.40;;
5343;SDS011;2694;48.950;8.970;2022-07-22T02:57:43;8.30;;;5.40;;
5343;SDS011;2694;48.950;8.970;2022-07-22T03:00:11;11.43;;;6.07;;
5343;SDS011;2694;48.950;8.970;2022-07-22T03:02:39;9.70;;;6.10;;
5343;SDS011;2694;48.950;8.970;2022-07-22T03:05:07;8.38;;;6.20;;
5343;SDS011;2694;48.950;8.970;2022-07-22T03:07:35;9.40;;;5.68;;
5343;SDS011;2694;48.950;8.970;2022-07-22T03:10:02;10.73;;;5.95;;
5343;SDS011;2694;48.950;8.970;2022-07-22T03:12:29;8.65;;;6.18;;
5343;SDS011;2694;48.950;8.970;2022-07-22T03:14:56;8.80;;;5.72;;
5343;SDS011;2694;48.950;8.970;2022-07-22T03:17:23;8.95;;;6.07;;
5343;SDS011;2694;48.950;8.970;2022-07-22T03:19:50;11.38;;;6.97;;
5343;SDS011;2694;48.950;8.970;2022-07-22T03:22:18;9.15;;;5.90;;
5343;SDS011;2694;48.950;8.970;2022-07-22T03:24:45;11.20;;;5.93;;
5343;SDS011;2694;48.950;8.970;2022-07-22T03:27:12;13.80;;;6.43;;
5343;SDS011;2694;48.950;8.970;2022-07-22T03:29:38;11.43;;;6.00;;
5343;SDS011;2694;48.950;8.970;2022-07-22T03:32:05;10.52;;;5.35;;
5343;SDS011;2694;48.950;8.970;2022-07-22T03:34:32;9.43;;;5.60;;
5343;SDS011;2694;48.950;8.970;2022-07-22T03:36:59;9.30;;;6.10;;
5343;SDS011;2694;48.950;8.970;2022-07-22T03:39:27;9.00;;;5.80;;
5343;SDS011;2694;48.950;8.970;2022-07-22T03:41:54;9.38;;;5.70;;
5343;SDS011;2694;48.950;8.970;2022-07-22T03:44:20;13.52;;;6.13;;
5343;SDS011;2694;48.950;8.970;2022-07-22T03:46:47;9.85;;;6.10;;
5343;SDS011;2694;48.950;8.970;2022-07-22T03:49:14;10.98;;;5.70;;
5343;SDS011;2694;48.950;8.970;2022-07-22T03:51:41;9.23;;;5.50;;
5343;SDS011;2694;48.950;8.970;2022-07-22T03:54:08;9.80;;;6.87;;
5343;SDS011;2694;48.950;8.970;2022-07-22T03:56:36;12.98;;;6.80;;
5343;SDS011;2694;48.950;8.970;2022-07-22T03:59:03;10.07;;;7.10;;
5343;SDS011;2694;48.950;8.970;2022-07-22T04:01:30;12.15;;;7.30;;
5343;SDS011;2694;48.950;8.970;2022-07-22T04:03:57;11.48;;;6.80;;
5343;SDS011;2694;48.950;8.970;2022-07-22T04:06:24;12.65;;;7.65;;
5343;SDS011;2694;48.950;8.970;2022-07-22T04:08:51;11.13;;;7.78;;
5343;SDS011;2694;48.950;8.970;2022-07-22T04:11:17;11.13;;;7.32;;
5343;SDS011;2694;48.950;8.970;2022-07-22T04:13:46;15.93;;;6.80;;
5343;SDS011;2694;48.950;8.970;2022-07-22T04:16:13;9.73;;;6.50;;
5343;SDS011;2694;48.950;8.970;2022-07-22T04:18:40;10.20;;;6.53;;
5343;SDS011;2694;48.950;8.970;2022-07-22T04:21:07;11.85;;;6.60;;
5343;SDS011;2694;48.950;8.970;2022-07-22T04:23:33;10.90;;;6.20;;
5343;SDS011;2694;48.950;8.970;2022-07-22T04:26:00;12.10;;;6.50;;
5343;SDS011;2694;48.950;8.970;2022-07-22T04:28:27;11.10;;;7.20;;
5343;SDS011;2694;48.950;8.970;2022-07-22T04:30:55;11.50;;;7.32;;
5343;SDS011;2694;48.950;8.970;2022-07-22T04:33:22;13.23;;;7.68;;
5343;SDS011;2694;48.950;8.970;2022-07-22T04:35:49;10.77;;;7.50;;
5343;SDS011;2694;48.950;8.970;2022-07-22T04:38:16;11.63;;;7.57;;
5343;SDS011;2694;48.950;8.970;2022-07-22T04:40:43;11.98;;;7.90;;
5343;SDS011;2694;48.950;8.970;2022-07-22T04:43:10;12.52;;;8.68;;
5343;SDS011;2694;48.950;8.970;2022-07-22T04:45:37;16.45;;;8.20;;
5343;SDS011;2694;48.950;8.970;2022-07-22T04:48:05;15.32;;;7.80;;
5343;SDS011;2694;48.950;8.970;2022-07-22T04:50:32;12.07;;;7.53;;
5343;SDS011;2694;48.950;8.970;2022-07-22T04:53:01;13.40;;;8.35;;
5343;SDS011;2694;48.950;8.970;2022-07-22T04:55:28;14.07;;;8.25;;
5343;SDS011;2694;48.950;8.970;2022-07-22T04:57:55;13.63;;;8.18;;
5343;SDS011;2694;48.950;8.970;2022-07-22T05:00:22;13.80;;;7.75;;
5343;SDS011;2694;48.950;8.970;2022-07-22T05:02:50;11.57;;;8.07;;
5343;SDS011;2694;48.950;8.970;2022-07-22T05:05:18;15.50;;;8.20;;
5343;SDS011;2694;48.950;8.970;2022-07-22T05:07:45;11.27;;;8.27;;
5343;SDS011;2694;48.950;8.970;2022-07-22T05:10:12;12.43;;;8.88;;
5343;SDS011;2694;48.950;8.970;2022-07-22T05:12:39;15.75;;;8.55;;
5343;SDS011;2694;48.950;8.970;2022-07-22T05:15:08;11.18;;;7.97;;
5343;SDS011;2694;48.950;8.970;2022-07-22T05:17:35;11.10;;;8.70;;
5343;SDS011;2694;48.950;8.970;2022-07-22T05:20:02;11.20;;;7.65;;
5343;SDS011;2694;48.950;8.970;2022-07-22T05:22:31;14.05;;;8.60;;
5343;SDS011;2694;48.950;8.970;2022-07-22T05:24:58;14.50;;;8.43;;
5343;SDS011;2694;48.950;8.970;2022-07-22T05:27:25;12.68;;;7.75;;
5343;SDS011;2694;48.950;8.970;2022-07-22T05:29:52;10.20;;;8.23;;
5343;SDS011;2694;48.950;8.970;2022-07-22T05:32:18;16.25;;;8.23;;
5343;SDS011;2694;48.950;8.970;2022-07-22T05:34:45;11.13;;;7.43;;
5343;SDS011;2694;48.950;8.970;2022-07-22T05:37:12;15.85;;;8.27;;
5343;SDS011;2694;48.950;8.970;2022-07-22T05:39:42;11.20;;;7.38;;
5343;SDS011;2694;48.950;8.970;2022-07-22T05:42:09;17.55;;;8.15;;
5343;SDS011;2694;48.950;8.970;2022-07-22T05:44:36;14.48;;;7.43;;
5343;SDS011;2694;48.950;8.970;2022-07-22T05:47:02;17.30;;;8.07;;
5343;SDS011;2694;48.950;8.970;2022-07-22T05:49:29;13.38;;;8.75;;
5343;SDS011;2694;48.950;8.970;2022-07-22T05:51:57;13.80;;;8.00;;
5343;SDS011;2694;48.950;8.970;2022-07-22T05:54:25;14.70;;;8.43;;
5343;SDS011;2694;48.950;8.970;2022-07-22T05:56:53;16.65;;;8.82;;
5343;SDS011;2694;48.950;8.970;2022-07-22T05:59:20;17.08;;;8.63;;
5343;SDS011;2694;48.950;8.970;2022-07-22T06:01:47;10.82;;;7.72;;
5343;SDS011;2694;48.950;8.970;2022-07-22T06:04:14;11.40;;;7.63;;
5343;SDS011;2694;48.950;8.970;2022-07-22T06:06:40;11.50;;;7.57;;
5343;SDS011;2694;48.950;8.970;2022-07-22T06:09:07;11.65;;;7.97;;
5343;SDS011;2694;48.950;8.970;2022-07-22T06:11:34;11.98;;;7.63;;
5343;SDS011;2694;48.950;8.970;2022-07-22T06:14:02;12.80;;;7.00;;
5343;SDS011;2694;48.950;8.970;2022-07-22T06:16:29;10.98;;;7.10;;
5343;SDS011;2694;48.950;8.970;2022-07-22T06:18:57;11.70;;;6.88;;
5343;SDS011;2694;48.950;8.970;2022-07-22T06:21:24;11.23;;;7.50;;
5343;SDS011;2694;48.950;8.970;2022-07-22T06:23:51;12.27;;;6.22;;
5343;SDS011;2694;48.950;8.970;2022-07-22T06:26:18;11.52;;;7.53;;
5343;SDS011;2694;48.950;8.970;2022-07-22T06:28:44;11.57;;;6.90;;
5343;SDS011;2694;48.950;8.970;2022-07-22T06:31:13;11.75;;;6.65;;
5343;SDS011;2694;48.950;8.970;2022-07-22T06:33:41;10.90;;;6.43;;
5343;SDS011;2694;48.950;8.970;2022-07-22T06:36:08;9.50;;;5.93;;
5343;SDS011;2694;48.950;8.970;2022-07-22T06:38:36;13.23;;;6.80;;
5343;SDS011;2694;48.950;8.970;2022-07-22T06:41:03;8.95;;;6.15;;
5343;SDS011;2694;48.950;8.970;2022-07-22T06:43:30;12.18;;;6.70;;
5343;SDS011;2694;48.950;8.970;2022-07-22T06:45:57;10.77;;;6.70;;
5343;SDS011;2694;48.950;8.970;2022-07-22T06:48:25;11.55;;;6.72;;
5343;SDS011;2694;48.950;8.970;2022-07-22T06:50:51;9.80;;;5.90;;
5343;SDS011;2694;48.950;8.970;2022-07-22T06:53:18;9.02;;;5.70;;
5343;SDS011;2694;48.950;8.970;2022-07-22T06:55:45;8.20;;;5.90;;
5343;SDS011;2694;48.950;8.970;2022-07-22T06:58:12;10.52;;;6.18;;
5343;SDS011;2694;48.950;8.970;2022-07-22T07:00:39;9.25;;;5.68;;
5343;SDS011;2694;48.950;8.970;2022-07-22T07:03:06;8.80;;;6.85;;
5343;SDS011;2694;48.950;8.970;2022-07-22T07:05:34;15.90;;;7.00;;
5343;SDS011;2694;48.950;8.970;2022-07-22T07:08:01;10.15;;;6.25;;
5343;SDS011;2694;48.950;8.970;2022-07-22T07:10:28;11.65;;;6.65;;
5343;SDS011;2694;48.950;8.970;2022-07-22T07:12:55;9.57;;;6.47;;
5343;SDS011;2694;48.950;8.970;2022-07-22T07:15:22;9.95;;;6.90;;
5343;SDS011;2694;48.950;8.970;2022-07-22T07:17:49;10.45;;;6.25;;
5343;SDS011;2694;48.950;8.970;2022-07-22T07:20:16;9.23;;;6.40;;
5343;SDS011;2694;48.950;8.970;2022-07-22T07:22:44;11.23;;;6.90;;
5343;SDS011;2694;48.950;8.970;2022-07-22T07:25:11;10.88;;;6.63;;
5343;SDS011;2694;48.950;8.970;2022-07-22T07:27:38;8.63;;;5.65;;
5343;SDS011;2694;48.950;8.970;2022-07-22T07:30:05;13.20;;;6.57;;
5343;SDS011;2694;48.950;8.970;2022-07-22T07:32:33;9.73;;;6.50;;
5343;SDS011;2694;48.950;8.970;2022-07-22T07:35:01;10.57;;;6.45;;
5343;SDS011;2694;48.950;8.970;2022-07-22T07:37:27;8.70;;;5.80;;
5343;SDS011;2694;48.950;8.970;2022-07-22T07:39:56;10.45;;;6.25;;
5343;SDS011;2694;48.950;8.970;2022-07-22T07:42:23;9.00;;;6.60;;
5343;SDS011;2694;48.950;8.970;2022-07-22T07:44:50;8.85;;;6.00;;
5343;SDS011;2694;48.950;8.970;2022-07-22T07:47:17;8.75;;;6.03;;
5343;SDS011;2694;48.950;8.970;2022-07-22T07:49:45;10.73;;;6.57;;
5343;SDS011;2694;48.950;8.970;2022-07-22T07:52:12;10.00;;;6.93;;
5343;SDS011;2694;48.950;8.970;2022-07-22T07:54:39;9.30;;;5.50;;
5343;SDS011;2694;48.950;8.970;2022-07-22T07:57:08;12.13;;;5.85;;
5343;SDS011;2694;48.950;8.970;2022-07-22T07:59:35;8.65;;;5.55;;
5343;SDS011;2694;48.950;8.970;2022-07-22T08:02:03;8.68;;;5.72;;
5343;SDS011;2694;48.950;8.970;2022-07-22T08:04:30;8.00;;;5.80;;
5343;SDS011;2694;48.950;8.970;2022-07-22T08:06:57;9.60;;;6.60;;
5343;SDS011;2694;48.950;8.970;2022-07-22T08:09:24;11.70;;;6.10;;
5343;SDS011;2694;48.950;8.970;2022-07-22T08:11:51;10.75;;;6.45;;
5343;SDS011;2694;48.950;8.970;2022-07-22T08:14:19;11.75;;;5.75;;
5343;SDS011;2694;48.950;8.970;2022-07-22T08:16:46;11.30;;;6.10;;
5343;SDS011;2694;48.950;8.970;2022-07-22T08:19:13;10.48;;;6.50;;
5343;SDS011;2694;48.950;8.970;2022-07-22T08:21:39;8.95;;;6.60;;
5343;SDS011;2694;48.950;8.970;2022-07-22T08:24:07;7.80;;;4.95;;
5343;SDS011;2694;48.950;8.970;2022-07-22T08:26:35;9.07;;;5.35;;
5343;SDS011;2694;48.950;8.970;2022-07-22T08:29:02;12.68;;;6.40;;
5343;SDS011;2694;48.950;8.970;2022-07-22T08:31:31;8.60;;;5.70;;
5343;SDS011;2694;48.950;8.970;2022-07-22T08:33:59;12.70;;;6.35;;
5343;SDS011;2694;48.950;8.970;2022-07-22T08:36:26;10.57;;;6.20;;
5343;SDS011;2694;48.950;8.970;2022-07-22T08:38:53;9.85;;;5.85;;
5343;SDS011;2694;48.950;8.970;2022-07-22T08:41:20;8.82;;;5.88;;
5343;SDS011;2694;48.950;8.970;2022-07-22T08:43:49;9.98;;;5.45;;
5343;SDS011;2694;48.950;8.970;2022-07-22T08:46:16;10.10;;;5.30;;
5343;SDS011;2694;48.950;8.970;2022-07-22T08:48:44;8.87;;;5.50;;
5343;SDS011;2694;48.950;8.970;2022-07-22T08:51:12;7.47;;;5.70;;
5343;SDS011;2694;48.950;8.970;2022-07-22T08:53:39;11.57;;;6.05;;
5343;SDS011;2694;48.950;8.970;2022-07-22T08:56:06;7.15;;;5.30;;
5343;SDS011;2694;48.950;8.970;2022-07-22T08:58:33;8.82;;;5.15;;
5343;SDS011;2694;48.950;8.970;2022-07-22T09:01:04;7.35;;;5.22;;
5343;SDS011;2694;48.950;8.970;2022-07-22T09:03:32;10.45;;;5.78;;
5343;SDS011;2694;48.950;8.970;2022-07-22T09:06:00;8.38;;;5.10;;
5343;SDS011;2694;48.950;8.970;2022-07-22T09:08:27;6.90;;;4.85;;
5343;SDS011;2694;48.950;8.970;2022-07-22T09:10:54;11.48;;;5.72;;
5343;SDS011;2694;48.950;8.970;2022-07-22T09:13:22;8.93;;;5.50;;
5343;SDS011;2694;48.950;8.970;2022-07-22T09:15:51;9.20;;;5.65;;
5343;SDS011;2694;48.950;8.970;2022-07-22T09:18:19;7.50;;;5.28;;
5343;SDS011;2694;48.950;8.970;2022-07-22T09:20:46;8.57;;;5.57;;
5343;SDS011;2694;48.950;8.970;2022-07-22T09:23:15;8.48;;;5.15;;
5343;SDS011;2694;48.950;8.970;2022-07-22T09:25:45;9.00;;;4.90;;
5343;SDS011;2694;48.950;8.970;2022-07-22T09:28:13;7.78;;;5.07;;
5343;SDS011;2694;48.950;8.970;2022-07-22T09:30:45;7.82;;;5.50;;
5343;SDS011;2694;48.950;8.970;2022-07-22T09:33:14;7.60;;;4.40;;
5343;SDS011;2694;48.950;8.970;2022-07-22T09:35:42;11.05;;;5.82;;
5343;SDS011;2694;48.950;8.970;2022-07-22T09:38:09;7.45;;;4.70;;
5343;SDS011;2694;48.950;8.970;2022-07-22T09:40:39;10.13;;;5.40;;
5343;SDS011;2694;48.950;8.970;2022-07-22T09:43:08;8.00;;;5.40;;
5343;SDS011;2694;48.950;8.970;2022-07-22T09:45:38;5.47;;;4.70;;
5343;SDS011;2694;48.950;8.970;2022-07-22T09:48:12;7.40;;;5.20;;
5343;SDS011;2694;48.950;8.970;2022-07-22T09:50:39;7.97;;;4.82;;
5343;SDS011;2694;48.950;8.970;2022-07-22T09:53:06;8.27;;;5.10;;
5343;SDS011;2694;48.950;8.970;2022-07-22T09:55:33;7.20;;;4.80;;
5343;SDS011;2694;48.950;8.970;2022-07-22T09:58:04;7.30;;;4.60;;
5343;SDS011;2694;48.950;8.970;2022-07-22T10:00:32;6.80;;;5.35;;
5343;SDS011;2694;48.950;8.970;2022-07-22T10:03:01;5.22;;;4.32;;
5343;SDS011;2694;48.950;8.970;2022-07-22T10:05:30;8.75;;;4.90;;
5343;SDS011;2694;48.950;8.970;2022-07-22T10:07:58;6.10;;;4.50;;
5343;SDS011;2694;48.950;8.970;2022-07-22T10:10:27;8.10;;;5.15;;
5343;SDS011;2694;48.950;8.970;2022-07-22T10:12:57;8.50;;;5.10;;
5343;SDS011;2694;48.950;8.970;2022-07-22T10:15:26;6.88;;;5.00;;
5343;SDS011;2694;48.950;8.970;2022-07-22T10:17:55;7.70;;;4.80;;
5343;SDS011;2694;48.950;8.970;2022-07-22T10:20:24;7.03;;;4.70;;
5343;SDS011;2694;48.950;8.970;2022-07-22T10:22:54;6.87;;;4.60;;
5343;SDS011;2694;48.950;8.970;2022-07-22T10:25:22;8.10;;;4.65;;
5343;SDS011;2694;48.950;8.970;2022-07-22T10:27:52;9.65;;;4.72;;
5343;SDS011;2694;48.950;8.970;2022-07-22T10:30:20;9.60;;;4.80;;
5343;SDS011;2694;48.950;8.970;2022-07-22T10:33:03;6.00;;;4.53;;
5343;SDS011;2694;48.950;8.970;2022-07-22T10:35:32;7.03;;;4.13;;
5343;SDS011;2694;48.950;8.970;2022-07-22T10:38:03;9.10;;;4.93;;
5343;SDS011;2694;48.950;8.970;2022-07-22T10:40:32;7.95;;;5.70;;
5343;SDS011;2694;48.950;8.970;2022-07-22T10:43:13;7.82;;;4.80;;
5343;SDS011;2694;48.950;8.970;2022-07-22T10:45:42;8.27;;;4.70;;
5343;SDS011;2694;48.950;8.970;2022-07-22T10:48:14;7.53;;;4.50;;
5343;SDS011;2694;48.950;8.970;2022-07-22T10:50:49;8.85;;;4.80;;
5343;SDS011;2694;48.950;8.970;2022-07-22T10:53:25;5.63;;;4.50;;
5343;SDS011;2694;48.950;8.970;2022-07-22T10:56:07;6.43;;;4.60;;
5343;SDS011;2694;48.950;8.970;2022-07-22T10:58:40;7.55;;;4.50;;
5343;SDS011;2694;48.950;8.970;2022-07-22T11:01:09;6.30;;;4.60;;
5343;SDS011;2694;48.950;8.970;2022-07-22T11:03:39;6.05;;;4.22;;
5343;SDS011;2694;48.950;8.970;2022-07-22T11:06:14;7.90;;;4.60;;
5343;SDS011;2694;48.950;8.970;2022-07-22T11:08:42;5.68;;;4.15;;
5343;SDS011;2694;48.950;8.970;2022-07-22T11:11:10;6.00;;;4.90;;
5343;SDS011;2694;48.950;8.970;2022-07-22T11:13:38;8.67;;;5.00;;
5343;SDS011;2694;48.950;8.970;2022-07-22T11:16:15;7.00;;;4.60;;
5343;SDS011;2694;48.950;8.970;2022-07-22T11:18:45;6.57;;;4.10;;
5343;SDS011;2694;48.950;8.970;2022-07-22T11:21:13;6.93;;;4.80;;
5343;SDS011;2694;48.950;8.970;2022-07-22T11:23:42;5.82;;;4.40;;
5343;SDS011;2694;48.950;8.970;2022-07-22T11:26:10;7.50;;;4.50;;
5343;SDS011;2694;48.950;8.970;2022-07-22T11:28:40;6.05;;;4.57;;
5343;SDS011;2694;48.950;8.970;2022-07-22T11:31:07;6.57;;;4.80;;
5343;SDS011;2694;48.950;8.970;2022-07-22T11:33:34;8.48;;;5.10;;
5343;SDS011;2694;48.950;8.970;2022-07-22T11:36:04;5.77;;;4.60;;
5343;SDS011;2694;48.950;8.970;2022-07-22T11:38:42;8.38;;;5.00;;
5343;SDS011;2694;48.950;8.970;2022-07-22T11:41:11;6.57;;;4.47;;
5343;SDS011;2694;48.950;8.970;2022-07-22T11:43:41;6.03;;;4.80;;
5343;SDS011;2694;48.950;8.970;2022-07-22T11:46:08;7.47;;;4.57;;
5343;SDS011;2694;48.950;8.970;2022-07-22T11:48:36;6.00;;;4.55;;
5343;SDS011;2694;48.950;8.970;2022-07-22T11:51:05;5.55;;;4.30;;
5343;SDS011;2694;48.950;8.970;2022-07-22T11:53:35;6.07;;;4.40;;
5343;SDS011;2694;48.950;8.970;2022-07-22T11:56:03;12.70;;;4.60;;
5343;SDS011;2694;48.950;8.970;2022-07-22T11:58:38;9.98;;;4.20;;
5343;SDS011;2694;48.950;8.970;2022-07-22T12:01:06;12.18;;;5.60;;
5343;SDS011;2694;48.950;8.970;2022-07-22T12:03:35;7.72;;;5.45;;
5343;SDS011;2694;48.950;8.970;2022-07-22T12:06:05;6.88;;;4.68;;
5343;SDS011;2694;48.950;8.970;2022-07-22T12:08:34;5.70;;;4.70;;
5343;SDS011;2694;48.950;8.970;2022-07-22T12:11:06;10.07;;;5.00;;
5343;SDS011;2694;48.950;8.970;2022-07-22T12:13:33;8.13;;;4.60;;
5343;SDS011;2694;48.950;8.970;2022-07-22T12:16:00;7.00;;;5.07;;
5343;SDS011;2694;48.950;8.970;2022-07-22T12:18:44;9.65;;;4.40;;
5343;SDS011;2694;48.950;8.970;2022-07-22T12:21:22;6.85;;;4.70;;
5343;SDS011;2694;48.950;8.970;2022-07-22T12:23:51;8.73;;;4.83;;
5343;SDS011;2694;48.950;8.970;2022-07-22T12:29:13;7.28;;;4.70;;
5343;SDS011;2694;48.950;8.970;2022-07-22T12:31:43;7.85;;;4.70;;
5343;SDS011;2694;48.950;8.970;2022-07-22T12:34:12;5.60;;;4.50;;
5343;SDS011;2694;48.950;8.970;2022-07-22T12:36:40;10.23;;;4.47;;
5343;SDS011;2694;48.950;8.970;2022-07-22T12:39:14;9.07;;;5.10;;
5343;SDS011;2694;48.950;8.970;2022-07-22T12:41:48;7.97;;;5.15;;
5343;SDS011;2694;48.950;8.970;2022-07-22T12:44:20;7.18;;;4.30;;
5343;SDS011;2694;48.950;8.970;2022-07-22T12:46:49;9.70;;;5.00;;
5343;SDS011;2694;48.950;8.970;2022-07-22T12:49:18;6.57;;;4.40;;
5343;SDS011;2694;48.950;8.970;2022-07-22T12:52:06;7.23;;;4.87;;
5343;SDS011;2694;48.950;8.970;2022-07-22T12:54:35;9.40;;;4.50;;
5343;SDS011;2694;48.950;8.970;2022-07-22T12:57:03;6.40;;;4.32;;
5343;SDS011;2694;48.950;8.970;2022-07-22T12:59:31;6.10;;;4.20;;
5343;SDS011;2694;48.950;8.970;2022-07-22T13:01:58;6.70;;;4.40;;
5343;SDS011;2694;48.950;8.970;2022-07-22T13:04:25;6.82;;;4.28;;
5343;SDS011;2694;48.950;8.970;2022-07-22T13:06:51;14.18;;;5.03;;
5343;SDS011;2694;48.950;8.970;2022-07-22T13:09:19;6.57;;;4.10;;
5343;SDS011;2694;48.950;8.970;2022-07-22T13:11:46;5.78;;;4.40;;
5343;SDS011;2694;48.950;8.970;2022-07-22T13:14:14;9.02;;;4.85;;
5343;SDS011;2694;48.950;8.970;2022-07-22T13:16:41;6.20;;;4.13;;
5343;SDS011;2694;48.950;8.970;2022-07-22T13:19:08;8.05;;;4.50;;
5343;SDS011;2694;48.950;8.970;2022-07-22T13:21:35;5.15;;;4.20;;
5343;SDS011;2694;48.950;8.970;2022-07-22T13:24:02;6.05;;;5.00;;
5343;SDS011;2694;48.950;8.970;2022-07-22T13:26:30;7.20;;;4.78;;
5343;SDS011;2694;48.950;8.970;2022-07-22T13:28:57;7.90;;;4.65;;
5343;SDS011;2694;48.950;8.970;2022-07-22T13:31:24;8.50;;;4.70;;
5343;SDS011;2694;48.950;8.970;2022-07-22T13:33:51;10.25;;;4.80;;
5343;SDS011;2694;48.950;8.970;2022-07-22T13:36:18;5.00;;;4.40;;
5343;SDS011;2694;48.950;8.970;2022-07-22T13:38:45;7.20;;;4.43;;
5343;SDS011;2694;48.950;8.970;2022-07-22T13:41:12;7.20;;;5.13;;
5343;SDS011;2694;48.950;8.970;2022-07-22T13:43:49;7.20;;;4.40;;
5343;SDS011;2694;48.950;8.970;2022-07-22T13:46:16;8.63;;;4.70;;
5343;SDS011;2694;48.950;8.970;2022-07-22T13:48:44;7.07;;;4.68;;
5343;SDS011;2694;48.950;8.970;2022-07-22T13:51:11;10.05;;;5.00;;
5343;SDS011;2694;48.950;8.970;2022-07-22T13:53:39;6.80;;;4.70;;
5343;SDS011;2694;48.950;8.970;2022-07-22T13:56:07;4.80;;;4.30;;
5343;SDS011;2694;48.950;8.970;2022-07-22T13:58:35;5.43;;;3.95;;
5343;SDS011;2694;48.950;8.970;2022-07-22T14:01:05;6.05;;;4.10;;
5343;SDS011;2694;48.950;8.970;2022-07-22T14:03:33;5.72;;;4.55;;
5343;SDS011;2694;48.950;8.970;2022-07-22T14:05:59;10.60;;;6.03;;
5343;SDS011;2694;48.950;8.970;2022-07-22T14:08:26;6.15;;;4.28;;
5343;SDS011;2694;48.950;8.970;2022-07-22T14:10:53;5.75;;;4.40;;
5343;SDS011;2694;48.950;8.970;2022-07-22T14:13:20;7.60;;;4.50;;
5343;SDS011;2694;48.950;8.970;2022-07-22T14:15:46;6.32;;;4.40;;
5343;SDS011;2694;48.950;8.970;2022-07-22T14:18:15;4.90;;;4.28;;
5343;SDS011;2694;48.950;8.970;2022-07-22T14:20:41;6.05;;;4.32;;
5343;SDS011;2694;48.950;8.970;2022-07-22T14:23:08;7.82;;;4.15;;
5343;SDS011;2694;48.950;8.970;2022-07-22T14:25:35;5.30;;;4.00;;
5343;SDS011;2694;48.950;8.970;2022-07-22T14:28:02;7.22;;;4.07;;
5343;SDS011;2694;48.950;8.970;2022-07-22T14:30:30;5.30;;;4.00;;
5343;SDS011;2694;48.950;8.970;2022-07-22T14:32:56;4.70;;;3.70;;
5343;SDS011;2694;48.950;8.970;2022-07-22T14:35:25;5.20;;;3.88;;
5343;SDS011;2694;48.950;8.970;2022-07-22T14:37:52;6.90;;;3.80;;
5343;SDS011;2694;48.950;8.970;2022-07-22T14:40:19;5.75;;;4.20;;
5343;SDS011;2694;48.950;8.970;2022-07-22T14:42:46;7.25;;;3.90;;
5343;SDS011;2694;48.950;8.970;2022-07-22T14:45:13;8.30;;;4.30;;
5343;SDS011;2694;48.950;8.970;2022-07-22T14:47:40;9.10;;;4.32;;
5343;SDS011;2694;48.950;8.970;2022-07-22T14:50:07;5.32;;;3.80;;
5343;SDS011;2694;48.950;8.970;2022-07-22T14:52:36;8.68;;;3.78;;
5343;SDS011;2694;48.950;8.970;2022-07-22T14:55:03;4.63;;;4.05;;
5343;SDS011;2694;48.950;8.970;2022-07-22T14:57:30;6.88;;;3.88;;
5343;SDS011;2694;48.950;8.970;2022-07-22T14:59:57;7.50;;;4.30;;
5343;SDS011;2694;48.950;8.970;2022-07-22T15:02:24;5.30;;;4.25;;
5343;SDS011;2694;48.950;8.970;2022-07-22T15:04:51;6.10;;;4.40;;
5343;SDS011;2694;48.950;8.970;2022-07-22T15:07:17;6.13;;;4.00;;
5343;SDS011;2694;48.950;8.970;2022-07-22T15:09:45;5.13;;;4.20;;
5343;SDS011;2694;48.950;8.970;2022-07-22T15:12:12;8.50;;;4.40;;
5343;SDS011;2694;48.950;8.970;2022-07-22T15:14:40;6.88;;;3.85;;
5343;SDS011;2694;48.950;8.970;2022-07-22T15:17:07;6.38;;;3.90;;